createdAt,value
2022-09-12T00:00:37.096Z,10.63
2022-09-12T00:01:37.155Z,10.60
2022-09-12T00:02:37.087Z,10.60
2022-09-12T00:03:37.052Z,10.59
2022-09-12T00:04:37.033Z,10.56
2022-09-12T00:05:37.031Z,10.53
2022-09-12T00:06:37.014Z,10.57
2022-09-12T00:07:37.000Z,10.57
2022-09-12T00:08:37.002Z,10.57
2022-09-12T00:09:36.970Z,10.49
2022-09-12T00:10:36.961Z,10.48
2022-09-12T00:11:36.948Z,10.44
2022-09-12T00:12:36.935Z,10.49
2022-09-12T00:13:40.927Z,10.51
2022-09-12T00:14:36.906Z,10.54
2022-09-12T00:15:36.896Z,10.49
2022-09-12T00:16:36.918Z,10.49
2022-09-12T00:17:36.867Z,10.48
2022-09-12T00:18:36.882Z,10.42
2022-09-12T00:19:36.845Z,10.40
2022-09-12T00:20:36.841Z,10.41
2022-09-12T00:21:36.822Z,10.40
2022-09-12T00:22:36.807Z,10.41
2022-09-12T00:23:36.793Z,10.38
2022-09-12T00:24:36.780Z,10.40
2022-09-12T00:25:36.774Z,10.37
2022-09-12T00:26:36.759Z,10.34
2022-09-12T00:27:36.749Z,10.31
2022-09-12T00:28:36.732Z,10.33
2022-09-12T00:29:36.720Z,10.31
2022-09-12T00:30:36.709Z,10.31
2022-09-12T00:31:36.766Z,10.34
2022-09-12T00:32:36.681Z,10.37
2022-09-12T00:33:36.671Z,10.37
2022-09-12T00:34:36.683Z,10.38
2022-09-12T00:35:36.644Z,10.38
2022-09-12T00:36:36.630Z,10.41
2022-09-12T00:37:36.620Z,10.41
2022-09-12T00:38:36.607Z,10.37
2022-09-12T00:39:36.705Z,10.34
2022-09-12T00:40:36.591Z,10.28
2022-09-12T00:41:36.576Z,10.28
2022-09-12T00:42:36.565Z,10.28
2022-09-12T00:43:36.548Z,10.25
2022-09-12T00:44:36.534Z,10.22
2022-09-12T00:45:36.566Z,10.19
2022-09-12T00:46:36.506Z,10.22
2022-09-12T00:47:36.498Z,10.20
2022-09-12T00:48:36.485Z,10.19
2022-09-12T00:49:36.470Z,10.22
2022-09-12T00:50:36.498Z,10.22
2022-09-12T00:51:36.446Z,10.17
2022-09-12T00:52:36.428Z,10.17
2022-09-12T00:53:36.429Z,10.19
2022-09-12T00:54:36.407Z,10.16
2022-09-12T00:55:36.395Z,10.13
2022-09-12T00:56:36.380Z,10.10
2022-09-12T00:57:36.369Z,10.10
2022-09-12T00:58:36.352Z,10.09
2022-09-12T00:59:36.340Z,10.05
2022-09-12T01:00:36.324Z,10.04
2022-09-12T01:01:36.438Z,10.04
2022-09-12T01:02:36.302Z,10.04
2022-09-12T01:03:36.292Z,10.02
2022-09-12T01:04:36.284Z,9.95
2022-09-12T01:05:36.264Z,9.97
2022-09-12T01:06:36.290Z,9.94
2022-09-12T01:07:39.909Z,9.89
2022-09-12T01:08:36.229Z,9.84
2022-09-12T01:09:36.215Z,9.84
2022-09-12T01:10:36.203Z,9.86
2022-09-12T01:11:36.197Z,9.89
2022-09-12T01:12:36.179Z,9.91
2022-09-12T01:13:36.164Z,9.86
2022-09-12T01:14:36.153Z,9.84
2022-09-12T01:15:36.142Z,9.83
2022-09-12T01:16:36.166Z,9.83
2022-09-12T01:17:36.117Z,9.82
2022-09-12T01:18:36.101Z,9.79
2022-09-12T01:19:36.092Z,9.76
2022-09-12T01:20:36.075Z,9.79
2022-09-12T01:21:36.072Z,9.80
2022-09-12T01:22:36.080Z,9.80
2022-09-12T01:23:36.034Z,9.82
2022-09-12T01:24:36.019Z,9.82
2022-09-12T01:25:36.010Z,9.84
2022-09-12T01:26:35.998Z,9.84
2022-09-12T01:27:35.985Z,9.86
2022-09-12T01:28:35.975Z,9.91
2022-09-12T01:29:35.962Z,9.91
2022-09-12T01:30:35.949Z,9.92
2022-09-12T01:31:35.938Z,9.92
2022-09-12T01:32:35.926Z,9.94
2022-09-12T01:33:35.911Z,9.92
2022-09-12T01:34:35.901Z,9.92
2022-09-12T01:35:35.885Z,9.89
2022-09-12T01:36:35.873Z,9.87
2022-09-12T01:37:35.857Z,9.86
2022-09-12T01:38:35.869Z,9.84
2022-09-12T01:39:35.834Z,9.80
2022-09-12T01:40:35.823Z,9.76
2022-09-12T01:41:35.807Z,9.73
2022-09-12T01:42:35.802Z,9.72
2022-09-12T01:43:35.784Z,9.69
2022-09-12T01:44:35.774Z,9.69
2022-09-12T01:45:35.804Z,9.64
2022-09-12T01:46:35.749Z,9.64
2022-09-12T01:47:35.737Z,9.61
2022-09-12T01:48:35.721Z,9.61
2022-09-12T01:49:35.708Z,9.58
2022-09-12T01:50:35.695Z,9.56
2022-09-12T01:51:35.679Z,9.54
2022-09-12T01:52:35.669Z,9.51
2022-09-12T01:53:35.660Z,9.51
2022-09-12T01:54:35.665Z,9.46
2022-09-12T01:55:35.628Z,9.44
2022-09-12T01:56:35.620Z,9.41
2022-09-12T01:57:35.603Z,9.43
2022-09-12T01:58:35.594Z,9.41
2022-09-12T01:59:35.577Z,9.47
2022-09-12T02:00:35.569Z,9.47
2022-09-12T02:01:35.554Z,9.46
2022-09-12T02:02:35.542Z,9.39
2022-09-12T02:03:35.528Z,9.40
2022-09-12T02:04:35.515Z,9.43
2022-09-12T02:05:35.503Z,9.37
2022-09-12T02:06:35.488Z,9.32
2022-09-12T02:07:35.475Z,9.29
2022-09-12T02:08:35.518Z,9.26
2022-09-12T02:09:35.449Z,9.31
2022-09-12T02:10:35.460Z,9.36
2022-09-12T02:11:35.426Z,9.41
2022-09-12T02:12:35.410Z,9.43
2022-09-12T02:13:35.400Z,9.47
2022-09-12T02:14:35.385Z,9.46
2022-09-12T02:15:35.374Z,9.47
2022-09-12T02:16:35.424Z,9.51
2022-09-12T02:17:35.346Z,9.51
2022-09-12T02:18:35.409Z,9.55
2022-09-12T02:19:35.329Z,9.48
2022-09-12T02:20:49.611Z,9.44
2022-09-12T02:21:36.330Z,9.43
2022-09-12T02:22:35.283Z,9.47
2022-09-12T02:23:35.270Z,9.47
2022-09-12T02:24:35.257Z,9.44
2022-09-12T02:25:35.247Z,9.41
2022-09-12T02:26:35.262Z,9.43
2022-09-12T02:27:35.216Z,9.44
2022-09-12T02:28:35.260Z,9.46
2022-09-12T02:29:35.194Z,9.43
2022-09-12T02:30:35.208Z,9.41
2022-09-12T02:31:35.166Z,9.41
2022-09-12T02:32:35.152Z,9.44
2022-09-12T02:33:35.141Z,9.43
2022-09-12T02:34:35.126Z,9.43
2022-09-12T02:35:35.114Z,9.41
2022-09-12T02:36:35.102Z,9.40
2022-09-12T02:37:35.101Z,9.44
2022-09-12T02:38:35.086Z,9.46
2022-09-12T02:39:35.067Z,9.40
2022-09-12T02:40:35.062Z,9.36
2022-09-12T02:41:35.038Z,9.37
2022-09-12T02:42:35.055Z,9.40
2022-09-12T02:43:35.012Z,9.41
2022-09-12T02:44:35.000Z,9.44
2022-09-12T02:45:35.030Z,9.43
2022-09-12T02:46:34.973Z,9.44
2022-09-12T02:47:34.961Z,9.44
2022-09-12T02:48:34.980Z,9.37
2022-09-12T02:49:34.939Z,9.32
2022-09-12T02:50:34.925Z,9.28
2022-09-12T02:51:34.906Z,9.26
2022-09-12T02:52:34.893Z,9.25
2022-09-12T02:53:34.885Z,9.21
2022-09-12T02:54:34.876Z,9.21
2022-09-12T02:55:34.859Z,9.19
2022-09-12T02:56:34.846Z,9.21
2022-09-12T02:57:34.833Z,9.14
2022-09-12T02:58:34.869Z,9.08
2022-09-12T02:59:34.806Z,9.10
2022-09-12T03:00:34.795Z,9.11
2022-09-12T03:01:34.830Z,9.13
2022-09-12T03:02:34.769Z,9.14
2022-09-12T03:03:34.752Z,9.14
2022-09-12T03:04:34.743Z,9.11
2022-09-12T03:05:34.733Z,9.10
2022-09-12T03:06:34.724Z,9.10
2022-09-12T03:07:34.713Z,9.06
2022-09-12T03:08:34.733Z,9.10
2022-09-12T03:09:34.679Z,9.10
2022-09-12T03:10:34.663Z,9.13
2022-09-12T03:11:34.648Z,9.14
2022-09-12T03:12:34.648Z,9.10
2022-09-12T03:13:34.629Z,9.03
2022-09-12T03:14:34.636Z,9.04
2022-09-12T03:15:34.599Z,9.03
2022-09-12T03:16:34.698Z,9.06
2022-09-12T03:17:34.574Z,9.08
2022-09-12T03:18:34.682Z,9.10
2022-09-12T03:19:34.551Z,9.08
2022-09-12T03:20:34.536Z,9.14
2022-09-12T03:21:34.527Z,9.16
2022-09-12T03:22:34.511Z,9.13
2022-09-12T03:23:34.500Z,9.08
2022-09-12T03:24:34.484Z,9.06
2022-09-12T03:25:34.477Z,9.00
2022-09-12T03:26:34.455Z,8.92
2022-09-12T03:27:34.450Z,8.91
2022-09-12T03:28:34.524Z,8.95
2022-09-12T03:29:34.423Z,8.92
2022-09-12T03:30:34.590Z,8.97
2022-09-12T03:31:34.407Z,8.94
2022-09-12T03:32:34.384Z,8.85
2022-09-12T03:33:34.371Z,8.84
2022-09-12T03:34:34.355Z,8.82
2022-09-12T03:35:34.343Z,8.82
2022-09-12T03:36:34.342Z,8.85
2022-09-12T03:37:34.323Z,8.88
2022-09-12T03:38:34.304Z,8.94
2022-09-12T03:39:34.294Z,8.95
2022-09-12T03:40:34.279Z,8.94
2022-09-12T03:41:34.265Z,8.95
2022-09-12T03:42:34.254Z,8.99
2022-09-12T03:43:34.240Z,8.95
2022-09-12T03:44:34.228Z,8.94
2022-09-12T03:45:34.245Z,8.88
2022-09-12T03:46:34.227Z,8.81
2022-09-12T03:47:34.186Z,8.79
2022-09-12T03:48:34.178Z,8.76
2022-09-12T03:49:34.163Z,8.73
2022-09-12T03:50:34.157Z,8.69
2022-09-12T03:51:34.140Z,8.66
2022-09-12T03:52:34.128Z,8.64
2022-09-12T03:53:34.113Z,8.66
2022-09-12T03:54:34.103Z,8.67
2022-09-12T03:55:34.085Z,8.67
2022-09-12T03:56:34.071Z,8.67
2022-09-12T03:57:34.061Z,8.66
2022-09-12T03:58:34.047Z,8.63
2022-09-12T03:59:34.034Z,8.60
2022-09-12T04:00:34.038Z,8.56
2022-09-12T04:01:34.009Z,8.58
2022-09-12T04:02:34.053Z,8.55
2022-09-12T04:03:33.987Z,8.52
2022-09-12T04:04:33.973Z,8.52
2022-09-12T04:05:33.957Z,8.49
2022-09-12T04:06:33.946Z,8.44
2022-09-12T04:07:33.931Z,8.36
2022-09-12T04:08:33.921Z,8.33
2022-09-12T04:09:33.906Z,8.34
2022-09-12T04:10:33.897Z,8.41
2022-09-12T04:11:33.880Z,8.42
2022-09-12T04:12:33.868Z,8.45
2022-09-12T04:13:33.855Z,8.49
2022-09-12T04:14:33.842Z,8.49
2022-09-12T04:15:33.832Z,8.51
2022-09-12T04:16:33.871Z,8.51
2022-09-12T04:17:33.803Z,8.53
2022-09-12T04:18:33.812Z,8.56
2022-09-12T04:19:33.774Z,8.60
2022-09-12T04:20:33.761Z,8.60
2022-09-12T04:21:33.752Z,8.55
2022-09-12T04:22:33.745Z,8.55
2022-09-12T04:23:33.727Z,8.58
2022-09-12T04:24:33.715Z,8.63
2022-09-12T04:25:33.705Z,8.61
2022-09-12T04:26:33.692Z,8.63
2022-09-12T04:27:33.675Z,8.56
2022-09-12T04:28:33.662Z,8.58
2022-09-12T04:29:33.649Z,8.64
2022-09-12T04:30:33.693Z,8.67
2022-09-12T04:31:33.621Z,8.64
2022-09-12T04:32:33.613Z,8.63
2022-09-12T04:33:33.603Z,8.58
2022-09-12T04:34:33.607Z,8.60
2022-09-12T04:35:33.573Z,8.63
2022-09-12T04:36:33.559Z,8.63
2022-09-12T04:37:33.564Z,8.61
2022-09-12T04:38:33.540Z,8.56
2022-09-12T04:39:33.525Z,8.58
2022-09-12T04:40:33.510Z,8.60
2022-09-12T04:41:33.496Z,8.60
2022-09-12T04:42:33.483Z,8.56
2022-09-12T04:43:33.466Z,8.55
2022-09-12T04:44:33.455Z,8.56
2022-09-12T04:45:33.474Z,8.55
2022-09-12T04:46:33.433Z,8.51
2022-09-12T04:47:33.427Z,8.44
2022-09-12T04:48:33.413Z,8.42
2022-09-12T04:49:33.391Z,8.44
2022-09-12T04:50:33.403Z,8.41
2022-09-12T04:51:33.363Z,8.38
2022-09-12T04:52:33.352Z,8.41
2022-09-12T04:53:33.342Z,8.44
2022-09-12T04:54:33.328Z,8.45
2022-09-12T04:55:33.315Z,8.44
2022-09-12T04:56:33.305Z,8.45
2022-09-12T04:57:33.292Z,8.44
2022-09-12T04:58:33.278Z,8.45
2022-09-12T04:59:33.263Z,8.48
2022-09-12T05:00:33.274Z,8.45
2022-09-12T05:01:33.281Z,8.46
2022-09-12T05:02:33.255Z,8.49
2022-09-12T05:03:33.209Z,8.55
2022-09-12T05:04:33.199Z,8.56
2022-09-12T05:05:33.187Z,8.56
2022-09-12T05:06:33.201Z,8.55
2022-09-12T05:07:33.165Z,8.52
2022-09-12T05:08:33.149Z,8.48
2022-09-12T05:09:33.143Z,8.44
2022-09-12T05:10:33.123Z,8.44
2022-09-12T05:12:00.166Z,8.42
2022-09-12T05:12:34.134Z,8.44
2022-09-12T05:13:33.091Z,8.42
2022-09-12T05:14:33.207Z,8.38
2022-09-12T05:15:33.062Z,8.34
2022-09-12T05:16:33.076Z,8.34
2022-09-12T05:17:33.031Z,8.31
2022-09-12T05:18:33.025Z,8.33
2022-09-12T05:19:33.008Z,8.30
2022-09-12T05:20:33.001Z,8.30
2022-09-12T05:21:32.982Z,8.28
2022-09-12T05:22:33.005Z,8.30
2022-09-12T05:23:32.963Z,8.31
2022-09-12T05:24:32.950Z,8.28
2022-09-12T05:25:32.935Z,8.27
2022-09-12T05:26:32.916Z,8.26
2022-09-12T05:27:32.908Z,8.26
2022-09-12T05:28:32.896Z,8.27
2022-09-12T05:29:32.881Z,8.30
2022-09-12T05:30:32.961Z,8.28
2022-09-12T05:31:32.862Z,8.28
2022-09-12T05:32:32.842Z,8.30
2022-09-12T05:33:32.842Z,8.30
2022-09-12T05:34:32.820Z,8.28
2022-09-12T05:35:32.802Z,8.26
2022-09-12T05:36:32.790Z,8.24
2022-09-12T05:37:32.779Z,8.23
2022-09-12T05:38:32.799Z,8.24
2022-09-12T05:39:32.761Z,8.27
2022-09-12T05:40:32.737Z,8.30
2022-09-12T05:41:32.727Z,8.28
2022-09-12T05:42:32.719Z,8.28
2022-09-12T05:43:32.705Z,8.30
2022-09-12T05:44:32.693Z,8.31
2022-09-12T05:45:32.709Z,8.37
2022-09-12T05:46:32.665Z,8.42
2022-09-12T05:47:32.655Z,8.48
2022-09-12T05:48:32.644Z,8.52
2022-09-12T05:49:32.629Z,8.55
2022-09-12T05:50:32.614Z,8.63
2022-09-12T05:51:32.608Z,8.71
2022-09-12T05:52:32.588Z,8.78
2022-09-12T05:53:32.578Z,8.89
2022-09-12T05:54:32.590Z,8.99
2022-09-12T05:55:32.556Z,9.10
2022-09-12T05:56:32.536Z,9.23
2022-09-12T05:57:32.525Z,9.34
2022-09-12T05:58:32.512Z,9.47
2022-09-12T05:59:32.501Z,9.58
2022-09-12T06:00:33.641Z,9.82
2022-09-12T06:01:32.539Z,10.09
2022-09-12T06:02:32.529Z,10.33
2022-09-12T06:03:32.448Z,10.41
2022-09-12T06:04:32.441Z,10.49
2022-09-12T06:05:32.421Z,10.59
2022-09-12T06:06:32.409Z,10.72
2022-09-12T06:07:32.397Z,10.72
2022-09-12T06:08:32.394Z,10.63
2022-09-12T06:09:32.372Z,10.61
2022-09-12T06:10:32.405Z,10.54
2022-09-12T06:11:32.352Z,10.53
2022-09-12T06:12:32.333Z,10.42
2022-09-12T06:13:32.324Z,10.35
2022-09-12T06:14:32.308Z,10.28
2022-09-12T06:15:32.298Z,10.23
2022-09-12T06:16:32.350Z,10.20
2022-09-12T06:17:32.272Z,10.19
2022-09-12T06:18:32.268Z,10.26
2022-09-12T06:19:32.248Z,10.37
2022-09-12T06:20:32.234Z,10.54
2022-09-12T06:21:32.230Z,10.71
2022-09-12T06:22:32.206Z,10.93
2022-09-12T06:23:32.201Z,11.10
2022-09-12T06:24:32.177Z,11.15
2022-09-12T06:25:32.170Z,11.17
2022-09-12T06:26:32.185Z,11.17
2022-09-12T06:27:32.142Z,11.11
2022-09-12T06:28:32.157Z,11.10
2022-09-12T06:29:32.123Z,11.15
2022-09-12T06:30:32.142Z,11.35
2022-09-12T06:31:32.096Z,11.65
2022-09-12T06:32:32.084Z,12.06
2022-09-12T06:33:32.065Z,12.65
2022-09-12T06:34:32.045Z,13.27
2022-09-12T06:35:32.047Z,13.56
2022-09-12T06:36:32.030Z,13.87
2022-09-12T06:37:32.020Z,14.00
2022-09-12T06:38:32.007Z,13.97
2022-09-12T06:39:31.988Z,13.78
2022-09-12T06:40:31.976Z,13.75
2022-09-12T06:41:31.982Z,13.86
2022-09-12T06:42:31.985Z,14.10
2022-09-12T06:43:32.404Z,14.40
2022-09-12T06:44:31.919Z,14.69
2022-09-12T06:45:31.927Z,15.07
2022-09-12T06:46:31.896Z,15.22
2022-09-12T06:47:31.881Z,15.43
2022-09-12T06:48:31.873Z,15.43
2022-09-12T06:49:31.853Z,15.84
2022-09-12T06:50:31.853Z,16.83
2022-09-12T06:51:31.830Z,17.94
2022-09-12T06:52:31.824Z,19.15
2022-09-12T06:53:31.814Z,20.03
2022-09-12T06:54:31.795Z,20.90
2022-09-12T06:55:31.785Z,21.64
2022-09-12T06:56:31.770Z,22.32
2022-09-12T06:57:31.755Z,22.88
2022-09-12T06:58:31.761Z,23.47
2022-09-12T06:59:31.737Z,23.86
2022-09-12T07:00:31.711Z,24.06
2022-09-12T07:01:31.768Z,24.35
2022-09-12T07:02:31.734Z,24.58
2022-09-12T07:03:31.674Z,24.84
2022-09-12T07:04:31.674Z,25.03
2022-09-12T07:05:31.650Z,25.10
2022-09-12T07:06:31.650Z,25.29
2022-09-12T07:07:31.629Z,25.31
2022-09-12T07:08:31.632Z,25.31
2022-09-12T07:09:31.600Z,25.10
2022-09-12T07:10:31.592Z,24.98
2022-09-12T07:11:31.582Z,24.95
2022-09-12T07:12:31.569Z,24.89
2022-09-12T07:13:31.554Z,24.98
2022-09-12T07:14:31.553Z,24.89
2022-09-12T07:15:31.528Z,24.58
2022-09-12T07:16:31.594Z,23.61
2022-09-12T07:17:31.500Z,23.09
2022-09-12T07:18:31.493Z,22.90
2022-09-12T07:19:31.474Z,22.39
2022-09-12T07:20:31.465Z,21.51
2022-09-12T07:21:31.438Z,20.77
2022-09-12T07:22:31.438Z,20.09
2022-09-12T07:23:31.427Z,19.51
2022-09-12T07:24:31.410Z,19.07
2022-09-12T07:25:31.409Z,18.63
2022-09-12T07:26:31.388Z,18.00
2022-09-12T07:27:31.363Z,16.96
2022-09-12T07:28:31.360Z,16.38
2022-09-12T07:29:38.525Z,15.91
2022-09-12T07:30:32.438Z,15.57
2022-09-12T07:31:31.327Z,15.31
2022-09-12T07:32:31.314Z,15.09
2022-09-12T07:33:31.304Z,14.85
2022-09-12T07:34:31.285Z,14.53
2022-09-12T07:35:31.276Z,14.33
2022-09-12T07:36:31.260Z,14.10
2022-09-12T07:37:31.248Z,13.83
2022-09-12T07:38:31.235Z,13.67
2022-09-12T07:39:31.221Z,13.54
2022-09-12T07:40:31.210Z,13.39
2022-09-12T07:41:31.202Z,13.23
2022-09-12T07:42:31.188Z,13.13
2022-09-12T07:43:31.173Z,13.12
2022-09-12T07:44:31.158Z,13.11
2022-09-12T07:45:31.151Z,13.11
2022-09-12T07:46:31.165Z,13.08
2022-09-12T07:47:31.127Z,13.05
2022-09-12T07:48:31.106Z,13.08
2022-09-12T07:49:31.096Z,13.13
2022-09-12T07:50:31.080Z,13.20
2022-09-12T07:51:31.074Z,13.25
2022-09-12T07:52:31.051Z,13.23
2022-09-12T07:53:31.043Z,13.23
2022-09-12T07:54:31.028Z,13.23
2022-09-12T07:55:31.014Z,13.27
2022-09-12T07:56:34.628Z,13.35
2022-09-12T07:57:32.017Z,13.44
2022-09-12T07:58:30.975Z,13.49
2022-09-12T07:59:51.253Z,13.59
2022-09-12T08:00:31.979Z,13.75
2022-09-12T08:01:31.015Z,13.86
2022-09-12T08:02:30.971Z,13.92
2022-09-12T08:03:30.919Z,13.96
2022-09-12T08:04:30.898Z,14.03
2022-09-12T08:05:30.884Z,14.04
2022-09-12T08:06:30.870Z,14.07
2022-09-12T08:07:30.861Z,14.11
2022-09-12T08:08:30.851Z,14.14
2022-09-12T08:09:30.835Z,14.18
2022-09-12T08:10:30.823Z,14.29
2022-09-12T08:11:30.811Z,14.32
2022-09-12T08:12:30.805Z,14.35
2022-09-12T08:13:30.796Z,14.37
2022-09-12T08:14:30.775Z,14.43
2022-09-12T08:15:30.838Z,14.48
2022-09-12T08:16:30.745Z,14.63
2022-09-12T08:17:30.733Z,14.68
2022-09-12T08:18:30.742Z,14.73
2022-09-12T08:19:30.710Z,14.81
2022-09-12T08:20:30.710Z,14.85
2022-09-12T08:21:30.686Z,14.86
2022-09-12T08:22:30.669Z,14.88
2022-09-12T08:23:30.659Z,14.88
2022-09-12T08:24:30.646Z,14.94
2022-09-12T08:25:30.630Z,14.97
2022-09-12T08:26:30.621Z,15.00
2022-09-12T08:27:30.609Z,15.04
2022-09-12T08:28:30.593Z,15.09
2022-09-12T08:29:30.575Z,15.14
2022-09-12T08:30:30.607Z,15.22
2022-09-12T08:31:30.554Z,15.25
2022-09-12T08:32:30.548Z,15.31
2022-09-12T08:33:30.539Z,15.43
2022-09-12T08:34:30.553Z,15.46
2022-09-12T08:35:30.502Z,15.57
2022-09-12T08:36:30.493Z,15.70
2022-09-12T08:37:30.483Z,15.83
2022-09-12T08:38:30.464Z,15.92
2022-09-12T08:39:30.455Z,16.08
2022-09-12T08:40:30.442Z,16.21
2022-09-12T08:41:30.478Z,16.29
2022-09-12T08:42:30.415Z,16.33
2022-09-12T08:43:30.407Z,16.38
2022-09-12T08:44:30.389Z,16.39
2022-09-12T08:45:30.377Z,16.38
2022-09-12T08:46:30.394Z,16.39
2022-09-12T08:47:30.351Z,16.38
2022-09-12T08:48:30.339Z,16.43
2022-09-12T08:49:30.325Z,16.51
2022-09-12T08:50:30.343Z,16.53
2022-09-12T08:51:30.302Z,16.50
2022-09-12T08:52:30.287Z,16.50
2022-09-12T08:53:30.268Z,16.49
2022-09-12T08:54:30.260Z,16.47
2022-09-12T08:55:30.247Z,16.46
2022-09-12T08:56:31.752Z,16.43
2022-09-12T08:57:30.215Z,16.46
2022-09-12T08:58:30.209Z,16.50
2022-09-12T08:59:30.197Z,16.49
2022-09-12T09:00:30.194Z,16.49
2022-09-12T09:01:30.260Z,16.53
2022-09-12T09:02:30.200Z,16.54
2022-09-12T09:03:30.145Z,16.56
2022-09-12T09:04:30.132Z,16.57
2022-09-12T09:05:30.128Z,16.60
2022-09-12T09:06:30.151Z,16.65
2022-09-12T09:07:30.095Z,16.68
2022-09-12T09:08:30.086Z,16.74
2022-09-12T09:09:30.069Z,16.75
2022-09-12T09:10:30.051Z,16.81
2022-09-12T09:11:30.049Z,16.86
2022-09-12T09:12:30.035Z,16.90
2022-09-12T09:13:30.025Z,16.96
2022-09-12T09:14:30.011Z,17.06
2022-09-12T09:15:30.026Z,17.20
2022-09-12T09:16:29.982Z,17.36
2022-09-12T09:17:29.968Z,17.48
2022-09-12T09:18:29.955Z,17.60
2022-09-12T09:19:29.945Z,17.74
2022-09-12T09:20:29.946Z,17.85
2022-09-12T09:21:29.921Z,17.92
2022-09-12T09:22:29.930Z,18.03
2022-09-12T09:23:29.891Z,18.13
2022-09-12T09:24:29.894Z,18.25
2022-09-12T09:25:29.865Z,18.22
2022-09-12T09:26:29.850Z,18.26
2022-09-12T09:27:40.339Z,18.33
2022-09-12T09:28:30.857Z,18.38
2022-09-12T09:29:29.816Z,18.47
2022-09-12T09:30:29.799Z,18.58
2022-09-12T09:31:29.810Z,18.59
2022-09-12T09:32:29.777Z,18.60
2022-09-12T09:33:29.765Z,18.66
2022-09-12T09:34:29.752Z,18.68
2022-09-12T09:35:33.138Z,18.66
2022-09-12T09:36:30.755Z,18.70
2022-09-12T09:37:29.714Z,18.65
2022-09-12T09:38:29.729Z,18.66
2022-09-12T09:39:29.688Z,18.68
2022-09-12T09:40:29.683Z,18.66
2022-09-12T09:41:29.651Z,18.70
2022-09-12T09:42:29.653Z,18.60
2022-09-12T09:43:29.642Z,18.60
2022-09-12T09:44:29.624Z,18.62
2022-09-12T09:45:29.608Z,18.63
2022-09-12T09:46:29.627Z,18.66
2022-09-12T09:47:29.586Z,18.70
2022-09-12T09:48:29.569Z,18.77
2022-09-12T09:49:29.563Z,18.75
2022-09-12T09:50:29.546Z,18.77
2022-09-12T09:51:29.531Z,18.78
2022-09-12T09:52:29.521Z,18.78
2022-09-12T09:53:29.501Z,18.83
2022-09-12T09:54:29.520Z,18.81
2022-09-12T09:55:29.478Z,18.80
2022-09-12T09:56:29.481Z,18.81
2022-09-12T09:57:29.461Z,18.81
2022-09-12T09:58:29.451Z,18.86
2022-09-12T09:59:29.437Z,18.88
2022-09-12T10:00:29.420Z,18.90
2022-09-12T10:01:29.462Z,18.96
2022-09-12T10:02:29.479Z,18.96
2022-09-12T10:03:29.382Z,18.98
2022-09-12T10:04:29.377Z,19.04
2022-09-12T10:05:29.359Z,19.00
2022-09-12T10:06:29.348Z,19.00
2022-09-12T10:07:29.331Z,19.11
2022-09-12T10:08:29.322Z,19.14
2022-09-12T10:09:29.305Z,19.16
2022-09-12T10:10:29.321Z,19.15
2022-09-12T10:11:29.279Z,19.15
2022-09-12T10:12:29.274Z,19.18
2022-09-12T10:13:29.262Z,19.27
2022-09-12T10:14:29.242Z,19.33
2022-09-12T10:15:29.332Z,19.29
2022-09-12T10:16:29.225Z,19.29
2022-09-12T10:17:33.763Z,19.31
2022-09-12T10:18:29.196Z,19.34
2022-09-12T10:19:29.180Z,19.37
2022-09-12T10:20:29.178Z,19.33
2022-09-12T10:21:29.159Z,19.31
2022-09-12T10:22:29.145Z,19.30
2022-09-12T10:23:29.138Z,19.30
2022-09-12T10:24:29.125Z,19.36
2022-09-12T10:25:29.106Z,19.36
2022-09-12T10:26:29.118Z,19.34
2022-09-12T10:27:29.077Z,19.34
2022-09-12T10:28:29.076Z,19.33
2022-09-12T10:29:29.065Z,19.34
2022-09-12T10:30:29.224Z,19.39
2022-09-12T10:31:29.122Z,19.41
2022-09-12T10:32:31.104Z,19.41
2022-09-12T10:33:29.007Z,19.41
2022-09-12T10:34:28.993Z,19.45
2022-09-12T10:35:28.979Z,19.51
2022-09-12T10:36:28.965Z,19.55
2022-09-12T10:37:28.960Z,19.56
2022-09-12T10:38:28.940Z,19.62
2022-09-12T10:39:28.928Z,19.58
2022-09-12T10:40:28.924Z,19.58
2022-09-12T10:41:28.913Z,19.59
2022-09-12T10:42:28.922Z,19.59
2022-09-12T10:43:28.886Z,19.58
2022-09-12T10:44:28.867Z,19.59
2022-09-12T10:45:28.858Z,19.62
2022-09-12T10:46:28.938Z,19.63
2022-09-12T10:47:28.837Z,19.59
2022-09-12T10:48:28.814Z,19.63
2022-09-12T10:49:28.802Z,19.67
2022-09-12T10:50:28.793Z,19.73
2022-09-12T10:51:28.785Z,19.77
2022-09-12T10:52:28.771Z,19.74
2022-09-12T10:53:33.630Z,19.79
2022-09-12T10:54:28.744Z,19.82
2022-09-12T10:55:28.728Z,19.84
2022-09-12T10:56:28.731Z,19.81
2022-09-12T10:57:28.706Z,19.81
2022-09-12T10:58:28.715Z,19.84
2022-09-12T10:59:28.683Z,19.85
2022-09-12T11:00:28.670Z,19.89
2022-09-12T11:01:28.719Z,19.91
2022-09-12T11:02:28.806Z,19.99
2022-09-12T11:03:28.629Z,20.11
2022-09-12T11:04:28.615Z,20.21
2022-09-12T11:05:28.602Z,20.19
2022-09-12T11:06:28.591Z,20.19
2022-09-12T11:07:28.575Z,20.18
2022-09-12T11:08:28.572Z,20.11
2022-09-12T11:09:28.565Z,20.06
2022-09-12T11:10:30.215Z,19.99
2022-09-12T11:11:28.535Z,19.96
2022-09-12T11:12:28.518Z,19.96
2022-09-12T11:13:28.503Z,20.02
2022-09-12T11:14:28.511Z,20.00
2022-09-12T11:15:28.480Z,20.04
2022-09-12T11:16:28.470Z,20.10
2022-09-12T11:17:28.456Z,20.10
2022-09-12T11:18:28.446Z,20.07
2022-09-12T11:19:28.433Z,20.11
2022-09-12T11:20:28.416Z,20.16
2022-09-12T11:21:28.402Z,20.21
2022-09-12T11:22:31.755Z,20.21
2022-09-12T11:23:28.376Z,20.21
2022-09-12T11:24:28.368Z,20.21
2022-09-12T11:25:28.356Z,20.22
2022-09-12T11:26:28.342Z,20.24
2022-09-12T11:27:28.322Z,20.19
2022-09-12T11:28:28.318Z,20.16
2022-09-12T11:29:28.298Z,20.14
2022-09-12T11:30:28.401Z,20.18
2022-09-12T11:31:28.272Z,20.22
2022-09-12T11:32:28.262Z,20.28
2022-09-12T11:33:28.246Z,20.28
2022-09-12T11:34:28.233Z,20.32
2022-09-12T11:35:28.216Z,20.37
2022-09-12T11:36:28.209Z,20.43
2022-09-12T11:37:28.197Z,20.44
2022-09-12T11:38:28.190Z,20.51
2022-09-12T11:39:28.165Z,20.56
2022-09-12T11:40:28.210Z,20.62
2022-09-12T11:41:28.141Z,20.67
2022-09-12T11:42:28.130Z,20.66
2022-09-12T11:43:28.110Z,20.69
2022-09-12T11:44:28.103Z,20.70
2022-09-12T11:45:28.092Z,20.55
2022-09-12T11:46:28.192Z,20.43
2022-09-12T11:47:28.062Z,20.39
2022-09-12T11:48:28.054Z,20.39
2022-09-12T11:49:28.558Z,20.36
2022-09-12T11:50:28.032Z,20.37
2022-09-12T11:51:28.007Z,20.36
2022-09-12T11:52:28.011Z,20.39
2022-09-12T11:53:27.999Z,20.44
2022-09-12T11:54:27.968Z,20.48
2022-09-12T11:55:27.970Z,20.50
2022-09-12T11:56:27.939Z,20.55
2022-09-12T11:57:27.938Z,20.56
2022-09-12T11:58:27.932Z,20.59
2022-09-12T11:59:27.911Z,20.55
2022-09-12T12:00:27.908Z,20.60
2022-09-12T12:01:27.888Z,20.65
2022-09-12T12:02:28.023Z,20.69
2022-09-12T12:03:27.891Z,20.63
2022-09-12T12:04:27.846Z,20.62
2022-09-12T12:05:27.832Z,20.60
2022-09-12T12:06:27.821Z,20.59
2022-09-12T12:07:27.813Z,20.56
2022-09-12T12:08:27.805Z,20.50
2022-09-12T12:09:27.779Z,20.55
2022-09-12T12:10:27.767Z,20.59
2022-09-12T12:11:27.755Z,20.65
2022-09-12T12:12:27.749Z,20.69
2022-09-12T12:13:27.736Z,20.70
2022-09-12T12:14:27.709Z,20.75
2022-09-12T12:15:27.699Z,20.78
2022-09-12T12:16:27.676Z,20.80
2022-09-12T12:17:27.675Z,20.75
2022-09-12T12:18:27.700Z,20.72
2022-09-12T12:19:27.651Z,20.69
2022-09-12T12:20:27.646Z,20.66
2022-09-12T12:21:27.631Z,20.66
2022-09-12T12:22:27.613Z,20.65
2022-09-12T12:23:27.606Z,20.66
2022-09-12T12:24:27.586Z,20.66
2022-09-12T12:25:30.015Z,20.70
2022-09-12T12:26:27.565Z,20.75
2022-09-12T12:27:27.543Z,20.75
2022-09-12T12:28:27.541Z,20.75
2022-09-12T12:29:27.529Z,20.81
2022-09-12T12:30:27.515Z,20.84
2022-09-12T12:31:27.560Z,20.92
2022-09-12T12:32:27.484Z,20.92
2022-09-12T12:33:27.490Z,20.87
2022-09-12T12:34:27.487Z,20.90
2022-09-12T12:35:27.443Z,20.92
2022-09-12T12:36:27.440Z,20.93
2022-09-12T12:37:27.424Z,20.97
2022-09-12T12:38:27.410Z,21.02
2022-09-12T12:39:27.403Z,21.05
2022-09-12T12:40:27.393Z,21.03
2022-09-12T12:41:27.680Z,21.00
2022-09-12T12:42:27.356Z,20.97
2022-09-12T12:43:27.354Z,20.96
2022-09-12T12:44:27.321Z,20.99
2022-09-12T12:45:27.336Z,21.05
2022-09-12T12:46:27.352Z,21.11
2022-09-12T12:47:27.306Z,21.09
2022-09-12T12:48:27.284Z,21.14
2022-09-12T12:49:27.267Z,21.06
2022-09-12T12:50:27.295Z,20.97
2022-09-12T12:51:27.238Z,20.97
2022-09-12T12:52:27.245Z,20.97
2022-09-12T12:53:27.214Z,21.02
2022-09-12T12:54:27.202Z,21.05
2022-09-12T12:55:27.193Z,21.11
2022-09-12T12:56:27.189Z,21.15
2022-09-12T12:57:27.163Z,21.20
2022-09-12T12:58:27.150Z,21.30
2022-09-12T12:59:27.143Z,21.37
2022-09-12T13:00:27.134Z,21.39
2022-09-12T13:01:27.167Z,21.40
2022-09-12T13:02:27.173Z,21.40